sensor_id;sensor_type;location;lat;lon;timestamp;temperature;humidity
13148;DHT22;6639;50.956;4.242;2023-04-06T00:00:33;15.00;81.00
13148;DHT22;6639;50.956;4.242;2023-04-06T00:03:00;15.10;81.60
13148;DHT22;6639;50.956;4.242;2023-04-06T00:05:27;15.40;81.40
13148;DHT22;6639;50.956;4.242;2023-04-06T00:07:57;15.40;80.90
13148;DHT22;6639;50.956;4.242;2023-04-06T00:10:25;15.10;80.60
13148;DHT22;6639;50.956;4.242;2023-04-06T00:12:52;14.90;81.30
13148;DHT22;6639;50.956;4.242;2023-04-06T00:15:20;14.90;81.70
13148;DHT22;6639;50.956;4.242;2023-04-06T00:17:47;14.90;81.40
13148;DHT22;6639;50.956;4.242;2023-04-06T00:20:15;15.20;81.90
13148;DHT22;6639;50.956;4.242;2023-04-06T00:22:42;15.50;80.70
13148;DHT22;6639;50.956;4.242;2023-04-06T00:25:09;15.60;81.10
13148;DHT22;6639;50.956;4.242;2023-04-06T00:27:37;15.80;80.90
13148;DHT22;6639;50.956;4.242;2023-04-06T00:30:04;15.50;80.70
13148;DHT22;6639;50.956;4.242;2023-04-06T00:32:33;15.40;80.90
13148;DHT22;6639;50.956;4.242;2023-04-06T00:35:02;15.20;80.80
13148;DHT22;6639;50.956;4.242;2023-04-06T00:37:29;15.40;81.80
13148;DHT22;6639;50.956;4.242;2023-04-06T00:39:55;15.00;81.50
13148;DHT22;6639;50.956;4.242;2023-04-06T00:42:22;14.80;82.20
13148;DHT22;6639;50.956;4.242;2023-04-06T00:44:52;14.90;82.50
13148;DHT22;6639;50.956;4.242;2023-04-06T00:47:19;15.10;81.80
13148;DHT22;6639;50.956;4.242;2023-04-06T00:49:48;15.40;81.40
13148;DHT22;6639;50.956;4.242;2023-04-06T00:52:15;15.40;80.90
13148;DHT22;6639;50.956;4.242;2023-04-06T00:54:42;15.40;80.70
13148;DHT22;6639;50.956;4.242;2023-04-06T00:57:10;15.20;80.60
13148;DHT22;6639;50.956;4.242;2023-04-06T00:59:37;15.20;81.70
13148;DHT22;6639;50.956;4.242;2023-04-06T01:02:05;15.10;80.60
13148;DHT22;6639;50.956;4.242;2023-04-06T01:04:32;15.00;81.40
13148;DHT22;6639;50.956;4.242;2023-04-06T01:07:01;14.90;81.50
13148;DHT22;6639;50.956;4.242;2023-04-06T01:09:28;15.10;81.80
13148;DHT22;6639;50.956;4.242;2023-04-06T01:11:56;15.10;81.60
13148;DHT22;6639;50.956;4.242;2023-04-06T01:14:23;15.30;81.00
13148;DHT22;6639;50.956;4.242;2023-04-06T01:16:50;15.20;81.10
13148;DHT22;6639;50.956;4.242;2023-04-06T01:19:17;15.10;81.50
13148;DHT22;6639;50.956;4.242;2023-04-06T01:21:44;14.90;81.30
13148;DHT22;6639;50.956;4.242;2023-04-06T01:24:12;14.70;81.20
13148;DHT22;6639;50.956;4.242;2023-04-06T01:26:40;14.60;81.50
13148;DHT22;6639;50.956;4.242;2023-04-06T01:29:07;14.30;82.20
13148;DHT22;6639;50.956;4.242;2023-04-06T01:31:34;14.20;82.90
13148;DHT22;6639;50.956;4.242;2023-04-06T01:34:01;14.60;82.90
13148;DHT22;6639;50.956;4.242;2023-04-06T01:36:28;14.50;81.40
13148;DHT22;6639;50.956;4.242;2023-04-06T01:38:55;14.10;82.60
13148;DHT22;6639;50.956;4.242;2023-04-06T01:41:23;13.70;82.80
13148;DHT22;6639;50.956;4.242;2023-04-06T01:43:50;13.50;83.00
13148;DHT22;6639;50.956;4.242;2023-04-06T01:46:20;13.40;83.80
13148;DHT22;6639;50.956;4.242;2023-04-06T01:48:46;13.40;84.50
13148;DHT22;6639;50.956;4.242;2023-04-06T01:51:14;13.40;83.40
13148;DHT22;6639;50.956;4.242;2023-04-06T01:53:41;13.10;84.20
13148;DHT22;6639;50.956;4.242;2023-04-06T01:56:08;13.20;84.50
13148;DHT22;6639;50.956;4.242;2023-04-06T01:58:37;13.30;84.10
13148;DHT22;6639;50.956;4.242;2023-04-06T02:01:04;13.30;84.00
13148;DHT22;6639;50.956;4.242;2023-04-06T02:03:31;13.30;84.30
13148;DHT22;6639;50.956;4.242;2023-04-06T02:05:58;13.10;84.80
13148;DHT22;6639;50.956;4.242;2023-04-06T02:08:25;13.30;84.40
13148;DHT22;6639;50.956;4.242;2023-04-06T02:10:52;13.70;83.80
13148;DHT22;6639;50.956;4.242;2023-04-06T02:13:19;13.50;83.50
13148;DHT22;6639;50.956;4.242;2023-04-06T02:15:47;13.60;83.80
13148;DHT22;6639;50.956;4.242;2023-04-06T02:18:14;13.50;83.40
13148;DHT22;6639;50.956;4.242;2023-04-06T02:20:43;13.60;84.10
13148;DHT22;6639;50.956;4.242;2023-04-06T02:23:10;13.70;83.90
13148;DHT22;6639;50.956;4.242;2023-04-06T02:25:37;13.60;83.90
13148;DHT22;6639;50.956;4.242;2023-04-06T02:28:04;13.60;83.70
13148;DHT22;6639;50.956;4.242;2023-04-06T02:30:31;13.70;83.80
13148;DHT22;6639;50.956;4.242;2023-04-06T02:33:00;13.50;84.00
13148;DHT22;6639;50.956;4.242;2023-04-06T02:35:28;13.40;84.10
13148;DHT22;6639;50.956;4.242;2023-04-06T02:37:55;13.80;84.00
13148;DHT22;6639;50.956;4.242;2023-04-06T02:40:22;13.90;83.60
13148;DHT22;6639;50.956;4.242;2023-04-06T02:42:48;14.10;83.00
13148;DHT22;6639;50.956;4.242;2023-04-06T02:45:16;13.80;82.70
13148;DHT22;6639;50.956;4.242;2023-04-06T02:47:43;13.80;83.40
13148;DHT22;6639;50.956;4.242;2023-04-06T02:50:11;14.00;83.20
13148;DHT22;6639;50.956;4.242;2023-04-06T02:52:38;13.90;83.00
13148;DHT22;6639;50.956;4.242;2023-04-06T02:55:06;14.10;83.60
13148;DHT22;6639;50.956;4.242;2023-04-06T02:57:33;14.40;83.50
13148;DHT22;6639;50.956;4.242;2023-04-06T03:00:00;14.80;82.70
13148;DHT22;6639;50.956;4.242;2023-04-06T03:02:27;14.90;81.80
13148;DHT22;6639;50.956;4.242;2023-04-06T03:04:54;14.90;81.20
13148;DHT22;6639;50.956;4.242;2023-04-06T03:07:22;14.60;82.00
13148;DHT22;6639;50.956;4.242;2023-04-06T03:09:49;14.40;82.10
13148;DHT22;6639;50.956;4.242;2023-04-06T03:12:16;13.90;82.40
13148;DHT22;6639;50.956;4.242;2023-04-06T03:14:43;14.00;83.40
13148;DHT22;6639;50.956;4.242;2023-04-06T03:17:10;14.20;83.00
13148;DHT22;6639;50.956;4.242;2023-04-06T03:19:37;13.90;83.20
13148;DHT22;6639;50.956;4.242;2023-04-06T03:22:04;14.00;83.20
13148;DHT22;6639;50.956;4.242;2023-04-06T03:24:32;13.70;83.30
13148;DHT22;6639;50.956;4.242;2023-04-06T03:26:59;13.80;83.70
13148;DHT22;6639;50.956;4.242;2023-04-06T03:29:27;14.10;84.10
13148;DHT22;6639;50.956;4.242;2023-04-06T03:31:53;14.40;83.90
13148;DHT22;6639;50.956;4.242;2023-04-06T03:34:21;14.60;83.70
13148;DHT22;6639;50.956;4.242;2023-04-06T03:36:47;14.80;83.40
13148;DHT22;6639;50.956;4.242;2023-04-06T03:39:15;14.70;83.70
13148;DHT22;6639;50.956;4.242;2023-04-06T03:41:43;14.40;83.90
13148;DHT22;6639;50.956;4.242;2023-04-06T03:44:11;14.00;84.90
13148;DHT22;6639;50.956;4.242;2023-04-06T03:46:39;13.70;85.80
13148;DHT22;6639;50.956;4.242;2023-04-06T03:49:06;13.50;87.30
13148;DHT22;6639;50.956;4.242;2023-04-06T03:51:32;13.40;86.80
13148;DHT22;6639;50.956;4.242;2023-04-06T03:53:59;13.70;86.30
13148;DHT22;6639;50.956;4.242;2023-04-06T03:56:26;14.10;85.80
13148;DHT22;6639;50.956;4.242;2023-04-06T03:58:55;14.00;85.20
13148;DHT22;6639;50.956;4.242;2023-04-06T04:01:22;13.60;85.20
13148;DHT22;6639;50.956;4.242;2023-04-06T04:03:49;12.80;85.30
13148;DHT22;6639;50.956;4.242;2023-04-06T04:06:16;13.10;87.10
13148;DHT22;6639;50.956;4.242;2023-04-06T04:08:43;13.00;86.90
13148;DHT22;6639;50.956;4.242;2023-04-06T04:11:10;13.10;87.80
13148;DHT22;6639;50.956;4.242;2023-04-06T04:13:37;12.80;86.70
13148;DHT22;6639;50.956;4.242;2023-04-06T04:16:06;12.90;88.80
13148;DHT22;6639;50.956;4.242;2023-04-06T04:18:33;12.90;88.30
13148;DHT22;6639;50.956;4.242;2023-04-06T04:21:00;13.00;88.30
13148;DHT22;6639;50.956;4.242;2023-04-06T04:23:27;13.40;88.00
13148;DHT22;6639;50.956;4.242;2023-04-06T04:25:53;13.80;87.30
13148;DHT22;6639;50.956;4.242;2023-04-06T04:28:20;14.20;86.60
13148;DHT22;6639;50.956;4.242;2023-04-06T04:30:49;14.30;86.40
13148;DHT22;6639;50.956;4.242;2023-04-06T04:33:17;14.20;86.30
13148;DHT22;6639;50.956;4.242;2023-04-06T04:35:44;14.20;86.70
13148;DHT22;6639;50.956;4.242;2023-04-06T04:38:11;13.80;87.20
13148;DHT22;6639;50.956;4.242;2023-04-06T04:40:38;14.10;87.30
13148;DHT22;6639;50.956;4.242;2023-04-06T04:43:05;14.10;87.70
13148;DHT22;6639;50.956;4.242;2023-04-06T04:45:32;14.50;87.10
13148;DHT22;6639;50.956;4.242;2023-04-06T04:47:59;14.60;86.90
13148;DHT22;6639;50.956;4.242;2023-04-06T04:50:27;14.70;86.90
13148;DHT22;6639;50.956;4.242;2023-04-06T04:52:54;14.90;86.80
13148;DHT22;6639;50.956;4.242;2023-04-06T04:55:21;14.90;86.80
13148;DHT22;6639;50.956;4.242;2023-04-06T04:57:48;14.80;87.00
13148;DHT22;6639;50.956;4.242;2023-04-06T05:00:15;14.90;87.20
13148;DHT22;6639;50.956;4.242;2023-04-06T05:02:42;14.70;88.10
13148;DHT22;6639;50.956;4.242;2023-04-06T05:05:09;14.20;89.30
13148;DHT22;6639;50.956;4.242;2023-04-06T05:07:38;14.20;90.00
13148;DHT22;6639;50.956;4.242;2023-04-06T05:10:06;13.60;90.60
13148;DHT22;6639;50.956;4.242;2023-04-06T05:12:33;13.10;91.20
13148;DHT22;6639;50.956;4.242;2023-04-06T05:15:00;12.80;91.90
13148;DHT22;6639;50.956;4.242;2023-04-06T05:17:27;12.70;92.10
13148;DHT22;6639;50.956;4.242;2023-04-06T05:19:54;13.30;92.10
13148;DHT22;6639;50.956;4.242;2023-04-06T05:22:21;13.40;91.60
13148;DHT22;6639;50.956;4.242;2023-04-06T05:24:49;13.50;91.70
13148;DHT22;6639;50.956;4.242;2023-04-06T05:27:16;13.60;91.70
13148;DHT22;6639;50.956;4.242;2023-04-06T05:29:43;13.60;91.80
13148;DHT22;6639;50.956;4.242;2023-04-06T05:32:11;13.70;91.60
13148;DHT22;6639;50.956;4.242;2023-04-06T05:34:38;13.40;92.20
13148;DHT22;6639;50.956;4.242;2023-04-06T05:37:04;13.40;92.30
13148;DHT22;6639;50.956;4.242;2023-04-06T05:39:31;13.30;92.40
13148;DHT22;6639;50.956;4.242;2023-04-06T05:42:03;13.60;92.50
13148;DHT22;6639;50.956;4.242;2023-04-06T05:44:30;14.10;92.00
13148;DHT22;6639;50.956;4.242;2023-04-06T05:46:57;14.50;91.80
13148;DHT22;6639;50.956;4.242;2023-04-06T05:49:24;14.80;91.60
13148;DHT22;6639;50.956;4.242;2023-04-06T05:51:51;14.80;91.60
13148;DHT22;6639;50.956;4.242;2023-04-06T05:54:18;15.00;91.40
13148;DHT22;6639;50.956;4.242;2023-04-06T05:56:45;15.00;91.10
13148;DHT22;6639;50.956;4.242;2023-04-06T05:59:13;15.10;91.10
13148;DHT22;6639;50.956;4.242;2023-04-06T06:01:40;14.70;91.50
13148;DHT22;6639;50.956;4.242;2023-04-06T06:04:07;13.90;92.00
13148;DHT22;6639;50.956;4.242;2023-04-06T06:06:34;13.80;93.40
13148;DHT22;6639;50.956;4.242;2023-04-06T06:09:02;13.70;93.30
13148;DHT22;6639;50.956;4.242;2023-04-06T06:11:29;13.20;94.30
13148;DHT22;6639;50.956;4.242;2023-04-06T06:13:56;13.80;94.50
13148;DHT22;6639;50.956;4.242;2023-04-06T06:16:25;14.10;94.20
13148;DHT22;6639;50.956;4.242;2023-04-06T06:18:51;13.80;94.80
13148;DHT22;6639;50.956;4.242;2023-04-06T06:21:18;13.30;95.10
13148;DHT22;6639;50.956;4.242;2023-04-06T06:23:45;13.30;95.40
13148;DHT22;6639;50.956;4.242;2023-04-06T06:26:14;13.30;96.10
13148;DHT22;6639;50.956;4.242;2023-04-06T06:28:41;13.60;96.10
13148;DHT22;6639;50.956;4.242;2023-04-06T06:31:09;13.30;96.80
13148;DHT22;6639;50.956;4.242;2023-04-06T06:33:37;13.00;97.90
13148;DHT22;6639;50.956;4.242;2023-04-06T06:36:04;13.20;97.60
13148;DHT22;6639;50.956;4.242;2023-04-06T06:38:31;13.20;98.60
13148;DHT22;6639;50.956;4.242;2023-04-06T06:41:00;12.40;99.90
13148;DHT22;6639;50.956;4.242;2023-04-06T06:43:38;12.80;99.90
13148;DHT22;6639;50.956;4.242;2023-04-06T06:46:05;13.20;99.90
13148;DHT22;6639;50.956;4.242;2023-04-06T06:48:32;13.50;99.90
13148;DHT22;6639;50.956;4.242;2023-04-06T06:51:02;13.90;99.90
13148;DHT22;6639;50.956;4.242;2023-04-06T06:53:29;14.00;99.70
13148;DHT22;6639;50.956;4.242;2023-04-06T06:55:56;13.50;99.90
13148;DHT22;6639;50.956;4.242;2023-04-06T06:58:23;13.70;99.90
13148;DHT22;6639;50.956;4.242;2023-04-06T07:00:49;13.60;99.90
13148;DHT22;6639;50.956;4.242;2023-04-06T07:03:16;13.40;99.90
13148;DHT22;6639;50.956;4.242;2023-04-06T07:05:47;13.20;99.90
13148;DHT22;6639;50.956;4.242;2023-04-06T07:08:20;13.30;99.90
13148;DHT22;6639;50.956;4.242;2023-04-06T07:10:47;13.50;99.90
13148;DHT22;6639;50.956;4.242;2023-04-06T07:13:14;13.20;99.90
13148;DHT22;6639;50.956;4.242;2023-04-06T07:15:46;13.10;99.90
13148;DHT22;6639;50.956;4.242;2023-04-06T07:18:14;13.50;99.90
13148;DHT22;6639;50.956;4.242;2023-04-06T07:20:41;13.40;99.90
13148;DHT22;6639;50.956;4.242;2023-04-06T07:23:29;13.10;99.90
13148;DHT22;6639;50.956;4.242;2023-04-06T07:25:56;12.90;99.90
13148;DHT22;6639;50.956;4.242;2023-04-06T07:28:23;13.30;99.90
13148;DHT22;6639;50.956;4.242;2023-04-06T07:30:50;13.10;99.90
13148;DHT22;6639;50.956;4.242;2023-04-06T07:33:17;12.50;99.90
13148;DHT22;6639;50.956;4.242;2023-04-06T07:35:45;12.20;99.90
13148;DHT22;6639;50.956;4.242;2023-04-06T07:38:17;12.30;99.90
13148;DHT22;6639;50.956;4.242;2023-04-06T07:40:46;12.40;99.90
13148;DHT22;6639;50.956;4.242;2023-04-06T07:43:13;12.40;99.90
13148;DHT22;6639;50.956;4.242;2023-04-06T07:45:41;12.00;99.90
13148;DHT22;6639;50.956;4.242;2023-04-06T07:48:08;11.80;99.90
13148;DHT22;6639;50.956;4.242;2023-04-06T07:50:35;11.80;99.90
13148;DHT22;6639;50.956;4.242;2023-04-06T07:53:02;11.90;99.90
13148;DHT22;6639;50.956;4.242;2023-04-06T07:55:29;11.80;99.90
13148;DHT22;6639;50.956;4.242;2023-04-06T07:57:57;12.30;99.90
13148;DHT22;6639;50.956;4.242;2023-04-06T08:00:24;12.00;99.90
13148;DHT22;6639;50.956;4.242;2023-04-06T08:02:51;11.80;99.90
13148;DHT22;6639;50.956;4.242;2023-04-06T08:05:18;12.20;99.90
13148;DHT22;6639;50.956;4.242;2023-04-06T08:07:46;11.80;99.90
13148;DHT22;6639;50.956;4.242;2023-04-06T08:10:13;12.00;99.90
13148;DHT22;6639;50.956;4.242;2023-04-06T08:12:40;11.30;99.90
13148;DHT22;6639;50.956;4.242;2023-04-06T08:15:09;11.10;99.90
13148;DHT22;6639;50.956;4.242;2023-04-06T08:17:36;11.10;99.90
13148;DHT22;6639;50.956;4.242;2023-04-06T08:20:04;11.30;99.90
13148;DHT22;6639;50.956;4.242;2023-04-06T08:22:31;11.20;99.90
13148;DHT22;6639;50.956;4.242;2023-04-06T08:24:59;11.60;99.90
13148;DHT22;6639;50.956;4.242;2023-04-06T08:27:31;11.80;99.90
13148;DHT22;6639;50.956;4.242;2023-04-06T08:29:58;11.60;99.90
13148;DHT22;6639;50.956;4.242;2023-04-06T08:32:26;11.70;99.90
13148;DHT22;6639;50.956;4.242;2023-04-06T08:34:53;11.60;99.90
13148;DHT22;6639;50.956;4.242;2023-04-06T08:37:22;11.40;99.90
13148;DHT22;6639;50.956;4.242;2023-04-06T08:39:52;11.20;99.90
13148;DHT22;6639;50.956;4.242;2023-04-06T08:42:20;10.90;99.90
13148;DHT22;6639;50.956;4.242;2023-04-06T08:44:48;11.40;99.90
13148;DHT22;6639;50.956;4.242;2023-04-06T08:47:17;11.10;99.90
13148;DHT22;6639;50.956;4.242;2023-04-06T08:49:45;11.00;99.90
13148;DHT22;6639;50.956;4.242;2023-04-06T08:52:13;10.90;99.90
13148;DHT22;6639;50.956;4.242;2023-04-06T08:54:47;11.10;99.90
13148;DHT22;6639;50.956;4.242;2023-04-06T08:57:15;10.90;99.90
13148;DHT22;6639;50.956;4.242;2023-04-06T08:59:43;11.20;99.90
13148;DHT22;6639;50.956;4.242;2023-04-06T09:02:15;11.50;99.90
13148;DHT22;6639;50.956;4.242;2023-04-06T09:04:44;11.70;99.90
13148;DHT22;6639;50.956;4.242;2023-04-06T09:07:12;11.40;99.90
13148;DHT22;6639;50.956;4.242;2023-04-06T09:09:39;11.40;99.90
13148;DHT22;6639;50.956;4.242;2023-04-06T09:12:22;11.20;99.90
13148;DHT22;6639;50.956;4.242;2023-04-06T09:14:49;11.30;99.90
13148;DHT22;6639;50.956;4.242;2023-04-06T09:17:20;11.10;99.90
13148;DHT22;6639;50.956;4.242;2023-04-06T09:19:49;11.10;99.90
13148;DHT22;6639;50.956;4.242;2023-04-06T09:22:17;11.10;99.90
13148;DHT22;6639;50.956;4.242;2023-04-06T09:24:45;11.40;99.90
13148;DHT22;6639;50.956;4.242;2023-04-06T09:27:13;11.40;99.90
13148;DHT22;6639;50.956;4.242;2023-04-06T09:29:40;11.30;99.90
13148;DHT22;6639;50.956;4.242;2023-04-06T09:32:09;11.20;99.90
13148;DHT22;6639;50.956;4.242;2023-04-06T09:34:37;11.00;99.90
13148;DHT22;6639;50.956;4.242;2023-04-06T09:37:14;10.80;99.90
13148;DHT22;6639;50.956;4.242;2023-04-06T09:39:41;11.00;99.90
13148;DHT22;6639;50.956;4.242;2023-04-06T09:42:08;11.20;99.90
13148;DHT22;6639;50.956;4.242;2023-04-06T09:44:35;11.30;99.90
13148;DHT22;6639;50.956;4.242;2023-04-06T09:47:04;11.20;99.90
13148;DHT22;6639;50.956;4.242;2023-04-06T09:49:33;11.20;99.90
13148;DHT22;6639;50.956;4.242;2023-04-06T09:52:02;11.20;99.90
13148;DHT22;6639;50.956;4.242;2023-04-06T09:54:31;11.30;99.90
13148;DHT22;6639;50.956;4.242;2023-04-06T09:57:04;11.50;99.90
13148;DHT22;6639;50.956;4.242;2023-04-06T09:59:39;11.50;99.90
13148;DHT22;6639;50.956;4.242;2023-04-06T10:02:15;11.20;99.90
13148;DHT22;6639;50.956;4.242;2023-04-06T10:04:52;11.20;99.90
13148;DHT22;6639;50.956;4.242;2023-04-06T10:07:25;11.00;99.90
13148;DHT22;6639;50.956;4.242;2023-04-06T10:09:55;11.00;99.90
13148;DHT22;6639;50.956;4.242;2023-04-06T10:12:22;11.20;99.90
13148;DHT22;6639;50.956;4.242;2023-04-06T10:14:49;11.30;99.90
13148;DHT22;6639;50.956;4.242;2023-04-06T10:17:17;11.30;99.90
13148;DHT22;6639;50.956;4.242;2023-04-06T10:19:53;11.40;99.90
13148;DHT22;6639;50.956;4.242;2023-04-06T10:22:26;11.40;99.90
13148;DHT22;6639;50.956;4.242;2023-04-06T10:24:57;11.70;99.90
13148;DHT22;6639;50.956;4.242;2023-04-06T10:27:30;11.40;99.90
13148;DHT22;6639;50.956;4.242;2023-04-06T10:30:05;11.20;99.90
13148;DHT22;6639;50.956;4.242;2023-04-06T10:32:36;11.20;99.90
13148;DHT22;6639;50.956;4.242;2023-04-06T10:35:07;11.40;99.90
13148;DHT22;6639;50.956;4.242;2023-04-06T10:37:47;11.40;99.90
13148;DHT22;6639;50.956;4.242;2023-04-06T10:40:21;11.40;99.90
13148;DHT22;6639;50.956;4.242;2023-04-06T10:42:49;11.30;99.90
13148;DHT22;6639;50.956;4.242;2023-04-06T10:45:20;11.60;99.90
13148;DHT22;6639;50.956;4.242;2023-04-06T10:47:47;11.60;99.90
13148;DHT22;6639;50.956;4.242;2023-04-06T10:50:15;11.80;99.90
13148;DHT22;6639;50.956;4.242;2023-04-06T10:52:44;12.00;99.90
13148;DHT22;6639;50.956;4.242;2023-04-06T10:55:13;11.70;99.90
13148;DHT22;6639;50.956;4.242;2023-04-06T10:57:41;11.70;99.90
13148;DHT22;6639;50.956;4.242;2023-04-06T11:00:10;12.00;99.90
13148;DHT22;6639;50.956;4.242;2023-04-06T11:02:47;12.10;99.90
13148;DHT22;6639;50.956;4.242;2023-04-06T11:05:14;12.10;99.90
13148;DHT22;6639;50.956;4.242;2023-04-06T11:07:44;12.20;99.90
13148;DHT22;6639;50.956;4.242;2023-04-06T11:10:21;12.30;99.90
13148;DHT22;6639;50.956;4.242;2023-04-06T11:12:54;12.30;99.90
13148;DHT22;6639;50.956;4.242;2023-04-06T11:15:21;12.10;99.90
13148;DHT22;6639;50.956;4.242;2023-04-06T11:17:48;11.80;99.90
13148;DHT22;6639;50.956;4.242;2023-04-06T11:20:16;11.80;99.90
13148;DHT22;6639;50.956;4.242;2023-04-06T11:22:53;11.90;99.90
13148;DHT22;6639;50.956;4.242;2023-04-06T11:25:20;11.80;99.90
13148;DHT22;6639;50.956;4.242;2023-04-06T11:28:25;12.00;99.90
13148;DHT22;6639;50.956;4.242;2023-04-06T11:30:55;11.70;99.90
13148;DHT22;6639;50.956;4.242;2023-04-06T11:33:58;12.10;99.90
13148;DHT22;6639;50.956;4.242;2023-04-06T11:36:27;12.10;99.90
13148;DHT22;6639;50.956;4.242;2023-04-06T11:38:56;12.20;99.90
13148;DHT22;6639;50.956;4.242;2023-04-06T11:41:32;12.20;99.90
13148;DHT22;6639;50.956;4.242;2023-04-06T11:44:02;12.10;99.90
13148;DHT22;6639;50.956;4.242;2023-04-06T11:46:30;12.10;99.90
13148;DHT22;6639;50.956;4.242;2023-04-06T11:48:59;11.60;99.90
13148;DHT22;6639;50.956;4.242;2023-04-06T11:51:27;11.90;99.90
13148;DHT22;6639;50.956;4.242;2023-04-06T11:53:54;12.10;99.90
13148;DHT22;6639;50.956;4.242;2023-04-06T11:56:25;11.90;99.90
13148;DHT22;6639;50.956;4.242;2023-04-06T11:58:53;11.80;99.90
13148;DHT22;6639;50.956;4.242;2023-04-06T12:01:22;12.00;99.90
13148;DHT22;6639;50.956;4.242;2023-04-06T12:03:49;12.10;99.90
13148;DHT22;6639;50.956;4.242;2023-04-06T12:06:16;12.20;99.90
13148;DHT22;6639;50.956;4.242;2023-04-06T12:08:44;12.00;99.90
13148;DHT22;6639;50.956;4.242;2023-04-06T12:11:11;12.10;99.90
13148;DHT22;6639;50.956;4.242;2023-04-06T12:13:38;12.30;99.90
13148;DHT22;6639;50.956;4.242;2023-04-06T12:16:05;12.10;99.90
13148;DHT22;6639;50.956;4.242;2023-04-06T12:18:34;12.30;99.90
13148;DHT22;6639;50.956;4.242;2023-04-06T12:21:01;12.20;99.90
13148;DHT22;6639;50.956;4.242;2023-04-06T12:23:28;12.30;99.90
13148;DHT22;6639;50.956;4.242;2023-04-06T12:25:55;11.90;99.90
13148;DHT22;6639;50.956;4.242;2023-04-06T12:28:22;11.80;99.90
13148;DHT22;6639;50.956;4.242;2023-04-06T12:30:52;11.80;99.90
13148;DHT22;6639;50.956;4.242;2023-04-06T12:33:20;11.60;99.90
13148;DHT22;6639;50.956;4.242;2023-04-06T12:35:49;11.80;99.90
13148;DHT22;6639;50.956;4.242;2023-04-06T12:38:16;11.70;99.90
13148;DHT22;6639;50.956;4.242;2023-04-06T12:40:43;12.10;99.90
13148;DHT22;6639;50.956;4.242;2023-04-06T12:43:10;11.90;99.90
13148;DHT22;6639;50.956;4.242;2023-04-06T12:45:38;12.20;99.90
13148;DHT22;6639;50.956;4.242;2023-04-06T12:48:06;12.00;99.90
13148;DHT22;6639;50.956;4.242;2023-04-06T12:50:33;11.80;99.90
13148;DHT22;6639;50.956;4.242;2023-04-06T12:53:01;11.50;99.90
13148;DHT22;6639;50.956;4.242;2023-04-06T12:55:30;11.70;99.90
13148;DHT22;6639;50.956;4.242;2023-04-06T12:58:00;11.90;99.90
13148;DHT22;6639;50.956;4.242;2023-04-06T13:00:28;11.80;99.90
13148;DHT22;6639;50.956;4.242;2023-04-06T13:02:56;11.80;99.90
13148;DHT22;6639;50.956;4.242;2023-04-06T13:05:23;11.80;99.90
13148;DHT22;6639;50.956;4.242;2023-04-06T13:07:50;11.80;99.90
13148;DHT22;6639;50.956;4.242;2023-04-06T13:10:18;11.60;99.90
13148;DHT22;6639;50.956;4.242;2023-04-06T13:12:45;11.60;99.90
13148;DHT22;6639;50.956;4.242;2023-04-06T13:15:12;11.80;99.90
13148;DHT22;6639;50.956;4.242;2023-04-06T13:17:39;11.70;99.90
13148;DHT22;6639;50.956;4.242;2023-04-06T13:20:07;11.70;99.90
13148;DHT22;6639;50.956;4.242;2023-04-06T13:22:34;11.90;99.90
13148;DHT22;6639;50.956;4.242;2023-04-06T13:25:08;12.40;99.90
13148;DHT22;6639;50.956;4.242;2023-04-06T13:27:37;12.70;99.90
13148;DHT22;6639;50.956;4.242;2023-04-06T13:30:05;12.10;99.90
13148;DHT22;6639;50.956;4.242;2023-04-06T13:32:33;12.00;99.90
13148;DHT22;6639;50.956;4.242;2023-04-06T13:35:00;11.80;99.90
13148;DHT22;6639;50.956;4.242;2023-04-06T13:37:29;12.10;99.90
13148;DHT22;6639;50.956;4.242;2023-04-06T13:39:56;12.00;99.90
13148;DHT22;6639;50.956;4.242;2023-04-06T13:42:29;11.90;99.90
13148;DHT22;6639;50.956;4.242;2023-04-06T13:44:59;12.10;99.90
13148;DHT22;6639;50.956;4.242;2023-04-06T13:47:26;12.50;99.90
13148;DHT22;6639;50.956;4.242;2023-04-06T13:49:53;12.50;99.90
13148;DHT22;6639;50.956;4.242;2023-04-06T13:52:20;12.50;99.90
13148;DHT22;6639;50.956;4.242;2023-04-06T13:54:48;12.50;99.90
13148;DHT22;6639;50.956;4.242;2023-04-06T13:57:15;12.50;99.90
13148;DHT22;6639;50.956;4.242;2023-04-06T13:59:42;12.40;99.90
13148;DHT22;6639;50.956;4.242;2023-04-06T14:02:11;12.80;99.90
13148;DHT22;6639;50.956;4.242;2023-04-06T14:04:37;13.10;99.90
13148;DHT22;6639;50.956;4.242;2023-04-06T14:07:04;13.00;99.90
13148;DHT22;6639;50.956;4.242;2023-04-06T14:09:33;13.10;99.90
13148;DHT22;6639;50.956;4.242;2023-04-06T14:12:00;12.90;99.90
13148;DHT22;6639;50.956;4.242;2023-04-06T14:14:27;12.90;99.90
13148;DHT22;6639;50.956;4.242;2023-04-06T14:16:54;12.90;99.90
13148;DHT22;6639;50.956;4.242;2023-04-06T14:19:22;12.80;99.90
13148;DHT22;6639;50.956;4.242;2023-04-06T14:21:49;12.40;99.90
13148;DHT22;6639;50.956;4.242;2023-04-06T14:24:17;12.60;99.90
13148;DHT22;6639;50.956;4.242;2023-04-06T14:26:44;12.70;99.90
13148;DHT22;6639;50.956;4.242;2023-04-06T14:29:12;13.10;99.90
13148;DHT22;6639;50.956;4.242;2023-04-06T14:31:39;13.10;99.90
13148;DHT22;6639;50.956;4.242;2023-04-06T14:34:06;12.90;99.90
13148;DHT22;6639;50.956;4.242;2023-04-06T14:36:34;12.70;99.90
13148;DHT22;6639;50.956;4.242;2023-04-06T14:39:04;12.70;99.90
13148;DHT22;6639;50.956;4.242;2023-04-06T14:41:32;12.90;99.90
13148;DHT22;6639;50.956;4.242;2023-04-06T14:43:59;13.00;99.90
13148;DHT22;6639;50.956;4.242;2023-04-06T14:46:26;12.90;99.90
13148;DHT22;6639;50.956;4.242;2023-04-06T14:48:54;13.20;99.90
13148;DHT22;6639;50.956;4.242;2023-04-06T14:51:24;12.80;99.90
13148;DHT22;6639;50.956;4.242;2023-04-06T14:53:52;13.00;99.90
13148;DHT22;6639;50.956;4.242;2023-04-06T14:56:20;13.40;99.90
13148;DHT22;6639;50.956;4.242;2023-04-06T14:58:47;13.10;99.90
13148;DHT22;6639;50.956;4.242;2023-04-06T15:01:15;13.40;99.90
13148;DHT22;6639;50.956;4.242;2023-04-06T15:03:42;13.50;99.90
13148;DHT22;6639;50.956;4.242;2023-04-06T15:06:12;13.30;99.90
13148;DHT22;6639;50.956;4.242;2023-04-06T15:08:40;13.20;99.90
13148;DHT22;6639;50.956;4.242;2023-04-06T15:11:10;13.60;99.90
13148;DHT22;6639;50.956;4.242;2023-04-06T15:13:38;13.80;99.90
13148;DHT22;6639;50.956;4.242;2023-04-06T15:16:07;13.90;99.90
13148;DHT22;6639;50.956;4.242;2023-04-06T15:18:34;14.30;99.90
13148;DHT22;6639;50.956;4.242;2023-04-06T15:21:01;14.40;99.90
13148;DHT22;6639;50.956;4.242;2023-04-06T15:23:29;14.00;99.90
13148;DHT22;6639;50.956;4.242;2023-04-06T15:25:56;13.70;99.90
13148;DHT22;6639;50.956;4.242;2023-04-06T15:28:24;13.60;99.90
13148;DHT22;6639;50.956;4.242;2023-04-06T15:30:51;14.10;99.90
13148;DHT22;6639;50.956;4.242;2023-04-06T15:33:20;14.40;99.90
13148;DHT22;6639;50.956;4.242;2023-04-06T15:35:47;14.70;99.90
13148;DHT22;6639;50.956;4.242;2023-04-06T15:38:14;14.70;99.90
13148;DHT22;6639;50.956;4.242;2023-04-06T15:40:43;15.00;99.90
13148;DHT22;6639;50.956;4.242;2023-04-06T15:43:10;15.00;99.90
13148;DHT22;6639;50.956;4.242;2023-04-06T15:45:40;14.80;99.90
13148;DHT22;6639;50.956;4.242;2023-04-06T15:48:07;14.90;99.90
13148;DHT22;6639;50.956;4.242;2023-04-06T15:50:35;14.40;99.90